sensor_id;sensor_type;location;lat;lon;timestamp;P1;durP1;ratioP1;P2;durP2;ratioP2
15913;SDS011;8055;51.930;8.840;2022-12-08T00:01:02;51.75;;;31.55;;
15913;SDS011;8055;51.930;8.840;2022-12-08T00:03:48;56.38;;;29.73;;
15913;SDS011;8055;51.930;8.840;2022-12-08T00:11:48;54.88;;;31.05;;
15913;SDS011;8055;51.930;8.840;2022-12-08T00:14:17;48.10;;;30.52;;
15913;SDS011;8055;51.930;8.840;2022-12-08T00:16:43;49.67;;;31.40;;
15913;SDS011;8055;51.930;8.840;2022-12-08T00:19:09;52.03;;;30.60;;
15913;SDS011;8055;51.930;8.840;2022-12-08T00:21:34;49.50;;;30.73;;
15913;SDS011;8055;51.930;8.840;2022-12-08T00:24:00;54.30;;;30.92;;
15913;SDS011;8055;51.930;8.840;2022-12-08T00:26:25;54.95;;;31.85;;
15913;SDS011;8055;51.930;8.840;2022-12-08T00:28:50;48.60;;;30.77;;
15913;SDS011;8055;51.930;8.840;2022-12-08T00:31:16;51.75;;;31.52;;
15913;SDS011;8055;51.930;8.840;2022-12-08T00:33:41;52.30;;;30.90;;
15913;SDS011;8055;51.930;8.840;2022-12-08T00:36:07;53.75;;;30.85;;
15913;SDS011;8055;51.930;8.840;2022-12-08T00:38:34;55.42;;;31.55;;
15913;SDS011;8055;51.930;8.840;2022-12-08T00:41:00;51.30;;;30.45;;
15913;SDS011;8055;51.930;8.840;2022-12-08T00:43:26;47.28;;;29.40;;
15913;SDS011;8055;51.930;8.840;2022-12-08T00:45:51;49.05;;;29.35;;
15913;SDS011;8055;51.930;8.840;2022-12-08T00:48:16;51.38;;;31.00;;
15913;SDS011;8055;51.930;8.840;2022-12-08T00:50:42;45.38;;;28.75;;
15913;SDS011;8055;51.930;8.840;2022-12-08T00:53:07;45.70;;;29.30;;
15913;SDS011;8055;51.930;8.840;2022-12-08T00:55:33;51.63;;;28.80;;
15913;SDS011;8055;51.930;8.840;2022-12-08T00:57:58;47.17;;;28.92;;
15913;SDS011;8055;51.930;8.840;2022-12-08T01:00:23;49.88;;;29.83;;
15913;SDS011;8055;51.930;8.840;2022-12-08T01:02:49;44.80;;;28.27;;
15913;SDS011;8055;51.930;8.840;2022-12-08T01:05:14;46.83;;;27.25;;
15913;SDS011;8055;51.930;8.840;2022-12-08T01:07:39;43.17;;;26.38;;
15913;SDS011;8055;51.930;8.840;2022-12-08T01:10:05;42.67;;;27.50;;
15913;SDS011;8055;51.930;8.840;2022-12-08T01:12:31;47.75;;;29.17;;
15913;SDS011;8055;51.930;8.840;2022-12-08T01:14:56;54.17;;;29.65;;
15913;SDS011;8055;51.930;8.840;2022-12-08T01:17:21;52.28;;;29.27;;
15913;SDS011;8055;51.930;8.840;2022-12-08T01:19:47;46.67;;;28.25;;
15913;SDS011;8055;51.930;8.840;2022-12-08T01:22:12;46.88;;;29.25;;
15913;SDS011;8055;51.930;8.840;2022-12-08T01:24:37;56.22;;;31.10;;
15913;SDS011;8055;51.930;8.840;2022-12-08T01:27:03;48.50;;;30.55;;
15913;SDS011;8055;51.930;8.840;2022-12-08T01:29:28;57.13;;;31.25;;
15913;SDS011;8055;51.930;8.840;2022-12-08T01:31:54;51.53;;;30.23;;
15913;SDS011;8055;51.930;8.840;2022-12-08T01:34:19;51.72;;;30.88;;
15913;SDS011;8055;51.930;8.840;2022-12-08T01:36:44;55.10;;;31.88;;
15913;SDS011;8055;51.930;8.840;2022-12-08T01:39:13;54.92;;;31.58;;
15913;SDS011;8055;51.930;8.840;2022-12-08T01:41:40;54.55;;;31.77;;
15913;SDS011;8055;51.930;8.840;2022-12-08T01:46:35;55.30;;;31.27;;
15913;SDS011;8055;51.930;8.840;2022-12-08T01:51:53;56.20;;;31.45;;
15913;SDS011;8055;51.930;8.840;2022-12-08T01:54:23;65.47;;;35.47;;
15913;SDS011;8055;51.930;8.840;2022-12-08T01:59:20;61.20;;;35.83;;
15913;SDS011;8055;51.930;8.840;2022-12-08T02:01:46;57.58;;;34.88;;
15913;SDS011;8055;51.930;8.840;2022-12-08T02:04:12;53.67;;;33.55;;
15913;SDS011;8055;51.930;8.840;2022-12-08T02:06:38;62.83;;;36.38;;
15913;SDS011;8055;51.930;8.840;2022-12-08T02:09:06;60.08;;;33.28;;
15913;SDS011;8055;51.930;8.840;2022-12-08T02:11:32;62.42;;;34.33;;
15913;SDS011;8055;51.930;8.840;2022-12-08T02:13:57;55.10;;;34.65;;
15913;SDS011;8055;51.930;8.840;2022-12-08T02:24:49;62.75;;;35.80;;
15913;SDS011;8055;51.930;8.840;2022-12-08T02:27:41;64.70;;;36.67;;
15913;SDS011;8055;51.930;8.840;2022-12-08T02:30:21;57.88;;;35.47;;
15913;SDS011;8055;51.930;8.840;2022-12-08T02:38:31;58.90;;;37.20;;
15913;SDS011;8055;51.930;8.840;2022-12-08T02:46:11;84.55;;;48.38;;
15913;SDS011;8055;51.930;8.840;2022-12-08T02:48:41;84.43;;;46.87;;
15913;SDS011;8055;51.930;8.840;2022-12-08T02:51:07;81.03;;;46.58;;
15913;SDS011;8055;51.930;8.840;2022-12-08T02:53:33;93.38;;;50.72;;
15913;SDS011;8055;51.930;8.840;2022-12-08T02:58:58;89.75;;;49.80;;
15913;SDS011;8055;51.930;8.840;2022-12-08T03:01:43;89.07;;;49.08;;
15913;SDS011;8055;51.930;8.840;2022-12-08T03:04:34;85.88;;;47.20;;
15913;SDS011;8055;51.930;8.840;2022-12-08T03:10:11;79.20;;;45.55;;
15913;SDS011;8055;51.930;8.840;2022-12-08T03:15:25;79.93;;;42.05;;
15913;SDS011;8055;51.930;8.840;2022-12-08T03:17:52;69.53;;;39.50;;
15913;SDS011;8055;51.930;8.840;2022-12-08T03:20:22;67.00;;;39.38;;
15913;SDS011;8055;51.930;8.840;2022-12-08T03:22:51;70.25;;;38.95;;
15913;SDS011;8055;51.930;8.840;2022-12-08T03:25:20;68.05;;;36.47;;
15913;SDS011;8055;51.930;8.840;2022-12-08T03:27:47;64.22;;;36.58;;
15913;SDS011;8055;51.930;8.840;2022-12-08T03:30:14;62.70;;;36.83;;
15913;SDS011;8055;51.930;8.840;2022-12-08T03:35:07;63.10;;;34.17;;
15913;SDS011;8055;51.930;8.840;2022-12-08T03:37:35;59.72;;;33.33;;
15913;SDS011;8055;51.930;8.840;2022-12-08T03:40:03;63.00;;;33.45;;
15913;SDS011;8055;51.930;8.840;2022-12-08T03:42:30;61.65;;;34.05;;
15913;SDS011;8055;51.930;8.840;2022-12-08T03:44:55;64.63;;;35.10;;
15913;SDS011;8055;51.930;8.840;2022-12-08T03:47:20;58.53;;;33.13;;
15913;SDS011;8055;51.930;8.840;2022-12-08T03:49:46;62.83;;;34.28;;
15913;SDS011;8055;51.930;8.840;2022-12-08T03:52:11;62.70;;;34.92;;
15913;SDS011;8055;51.930;8.840;2022-12-08T03:54:36;61.67;;;34.70;;
15913;SDS011;8055;51.930;8.840;2022-12-08T03:57:02;57.28;;;31.95;;
15913;SDS011;8055;51.930;8.840;2022-12-08T03:59:27;61.65;;;33.45;;
15913;SDS011;8055;51.930;8.840;2022-12-08T04:01:52;59.45;;;35.78;;
15913;SDS011;8055;51.930;8.840;2022-12-08T04:04:18;69.35;;;37.00;;
15913;SDS011;8055;51.930;8.840;2022-12-08T04:06:43;67.80;;;37.85;;
15913;SDS011;8055;51.930;8.840;2022-12-08T04:09:08;73.63;;;38.85;;
15913;SDS011;8055;51.930;8.840;2022-12-08T04:11:34;67.60;;;38.08;;
15913;SDS011;8055;51.930;8.840;2022-12-08T04:13:59;66.82;;;37.25;;
15913;SDS011;8055;51.930;8.840;2022-12-08T04:16:25;67.63;;;38.17;;
15913;SDS011;8055;51.930;8.840;2022-12-08T04:18:51;67.55;;;39.25;;
15913;SDS011;8055;51.930;8.840;2022-12-08T04:21:17;70.00;;;38.35;;
15913;SDS011;8055;51.930;8.840;2022-12-08T04:23:43;73.70;;;39.53;;
15913;SDS011;8055;51.930;8.840;2022-12-08T04:26:09;72.93;;;38.72;;
15913;SDS011;8055;51.930;8.840;2022-12-08T04:28:36;68.43;;;38.33;;
15913;SDS011;8055;51.930;8.840;2022-12-08T04:31:01;66.65;;;37.53;;
15913;SDS011;8055;51.930;8.840;2022-12-08T04:33:27;69.05;;;37.17;;
15913;SDS011;8055;51.930;8.840;2022-12-08T04:35:52;72.55;;;39.08;;
15913;SDS011;8055;51.930;8.840;2022-12-08T04:38:18;64.90;;;36.75;;
15913;SDS011;8055;51.930;8.840;2022-12-08T04:40:43;67.78;;;36.92;;
15913;SDS011;8055;51.930;8.840;2022-12-08T04:43:09;69.53;;;36.40;;
15913;SDS011;8055;51.930;8.840;2022-12-08T04:45:34;71.13;;;38.22;;
15913;SDS011;8055;51.930;8.840;2022-12-08T04:48:00;72.63;;;37.88;;
15913;SDS011;8055;51.930;8.840;2022-12-08T04:50:26;68.07;;;36.35;;
15913;SDS011;8055;51.930;8.840;2022-12-08T04:52:52;70.70;;;39.08;;
15913;SDS011;8055;51.930;8.840;2022-12-08T04:55:17;67.82;;;35.85;;
15913;SDS011;8055;51.930;8.840;2022-12-08T04:57:43;74.55;;;39.15;;
15913;SDS011;8055;51.930;8.840;2022-12-08T05:00:08;64.15;;;33.80;;
15913;SDS011;8055;51.930;8.840;2022-12-08T05:02:34;67.28;;;37.25;;
15913;SDS011;8055;51.930;8.840;2022-12-08T05:05:00;70.57;;;36.60;;
15913;SDS011;8055;51.930;8.840;2022-12-08T05:07:25;78.57;;;39.60;;
15913;SDS011;8055;51.930;8.840;2022-12-08T05:09:51;72.88;;;38.92;;
15913;SDS011;8055;51.930;8.840;2022-12-08T05:12:16;75.63;;;38.05;;
15913;SDS011;8055;51.930;8.840;2022-12-08T05:14:42;70.30;;;37.03;;
15913;SDS011;8055;51.930;8.840;2022-12-08T05:17:07;65.63;;;36.22;;
15913;SDS011;8055;51.930;8.840;2022-12-08T05:19:33;69.75;;;38.53;;
15913;SDS011;8055;51.930;8.840;2022-12-08T05:21:58;67.05;;;36.10;;
15913;SDS011;8055;51.930;8.840;2022-12-08T05:24:23;64.43;;;37.10;;
15913;SDS011;8055;51.930;8.840;2022-12-08T05:26:49;64.95;;;36.97;;
15913;SDS011;8055;51.930;8.840;2022-12-08T05:29:14;63.20;;;35.85;;
15913;SDS011;8055;51.930;8.840;2022-12-08T05:31:40;59.85;;;33.65;;
15913;SDS011;8055;51.930;8.840;2022-12-08T05:34:05;59.67;;;33.90;;
15913;SDS011;8055;51.930;8.840;2022-12-08T05:36:30;53.92;;;31.38;;
15913;SDS011;8055;51.930;8.840;2022-12-08T05:38:56;52.53;;;31.02;;
15913;SDS011;8055;51.930;8.840;2022-12-08T05:41:22;55.50;;;30.35;;
15913;SDS011;8055;51.930;8.840;2022-12-08T05:43:47;56.63;;;30.45;;
15913;SDS011;8055;51.930;8.840;2022-12-08T05:46:13;51.67;;;29.80;;
15913;SDS011;8055;51.930;8.840;2022-12-08T05:48:39;50.15;;;29.98;;
15913;SDS011;8055;51.930;8.840;2022-12-08T05:51:06;48.63;;;29.33;;
15913;SDS011;8055;51.930;8.840;2022-12-08T05:53:37;50.22;;;29.75;;
15913;SDS011;8055;51.930;8.840;2022-12-08T05:56:02;52.92;;;30.08;;
15913;SDS011;8055;51.930;8.840;2022-12-08T05:58:28;46.72;;;27.98;;
15913;SDS011;8055;51.930;8.840;2022-12-08T06:00:53;43.97;;;26.35;;
15913;SDS011;8055;51.930;8.840;2022-12-08T06:03:19;43.92;;;26.35;;
15913;SDS011;8055;51.930;8.840;2022-12-08T06:05:44;34.92;;;22.10;;
15913;SDS011;8055;51.930;8.840;2022-12-08T06:08:11;38.17;;;24.00;;
15913;SDS011;8055;51.930;8.840;2022-12-08T06:10:38;40.00;;;25.42;;
15913;SDS011;8055;51.930;8.840;2022-12-08T06:13:04;36.45;;;23.38;;
15913;SDS011;8055;51.930;8.840;2022-12-08T06:15:30;35.50;;;21.38;;
15913;SDS011;8055;51.930;8.840;2022-12-08T06:17:57;32.63;;;21.05;;
15913;SDS011;8055;51.930;8.840;2022-12-08T06:20:23;33.00;;;21.20;;
15913;SDS011;8055;51.930;8.840;2022-12-08T06:22:48;34.90;;;22.85;;
15913;SDS011;8055;51.930;8.840;2022-12-08T06:25:13;36.53;;;22.45;;
15913;SDS011;8055;51.930;8.840;2022-12-08T06:27:39;35.35;;;23.02;;
15913;SDS011;8055;51.930;8.840;2022-12-08T06:30:04;38.72;;;22.50;;
15913;SDS011;8055;51.930;8.840;2022-12-08T06:32:30;37.63;;;24.50;;
15913;SDS011;8055;51.930;8.840;2022-12-08T06:34:56;35.78;;;23.05;;
15913;SDS011;8055;51.930;8.840;2022-12-08T06:37:21;37.92;;;23.80;;
15913;SDS011;8055;51.930;8.840;2022-12-08T06:39:46;41.42;;;24.77;;
15913;SDS011;8055;51.930;8.840;2022-12-08T06:42:12;38.95;;;23.63;;
15913;SDS011;8055;51.930;8.840;2022-12-08T06:44:55;41.03;;;24.25;;
15913;SDS011;8055;51.930;8.840;2022-12-08T06:47:21;46.30;;;27.30;;
15913;SDS011;8055;51.930;8.840;2022-12-08T06:49:46;49.00;;;26.45;;
15913;SDS011;8055;51.930;8.840;2022-12-08T06:52:12;45.00;;;27.60;;
15913;SDS011;8055;51.930;8.840;2022-12-08T06:54:37;52.13;;;29.38;;
15913;SDS011;8055;51.930;8.840;2022-12-08T06:57:03;45.50;;;26.92;;
15913;SDS011;8055;51.930;8.840;2022-12-08T06:59:28;50.72;;;28.17;;
15913;SDS011;8055;51.930;8.840;2022-12-08T07:01:54;43.20;;;26.35;;
15913;SDS011;8055;51.930;8.840;2022-12-08T07:04:19;46.25;;;26.77;;
15913;SDS011;8055;51.930;8.840;2022-12-08T07:06:44;45.45;;;26.60;;
15913;SDS011;8055;51.930;8.840;2022-12-08T07:09:10;43.75;;;25.17;;
15913;SDS011;8055;51.930;8.840;2022-12-08T07:11:36;42.33;;;24.13;;
15913;SDS011;8055;51.930;8.840;2022-12-08T07:14:02;40.75;;;24.30;;
15913;SDS011;8055;51.930;8.840;2022-12-08T07:16:28;42.25;;;24.90;;
15913;SDS011;8055;51.930;8.840;2022-12-08T07:18:53;36.17;;;21.48;;
15913;SDS011;8055;51.930;8.840;2022-12-08T07:21:18;36.65;;;23.10;;
15913;SDS011;8055;51.930;8.840;2022-12-08T07:23:44;38.55;;;22.77;;
15913;SDS011;8055;51.930;8.840;2022-12-08T07:26:11;40.38;;;22.92;;
15913;SDS011;8055;51.930;8.840;2022-12-08T07:28:37;42.38;;;24.08;;
15913;SDS011;8055;51.930;8.840;2022-12-08T07:31:05;38.13;;;22.77;;
15913;SDS011;8055;51.930;8.840;2022-12-08T07:33:31;38.35;;;23.80;;
15913;SDS011;8055;51.930;8.840;2022-12-08T07:35:58;45.35;;;25.45;;
15913;SDS011;8055;51.930;8.840;2022-12-08T07:38:25;40.88;;;23.15;;
15913;SDS011;8055;51.930;8.840;2022-12-08T07:40:51;48.83;;;26.40;;
15913;SDS011;8055;51.930;8.840;2022-12-08T07:43:17;42.33;;;24.10;;
15913;SDS011;8055;51.930;8.840;2022-12-08T07:45:43;44.08;;;25.38;;
15913;SDS011;8055;51.930;8.840;2022-12-08T07:48:08;44.47;;;25.85;;
15913;SDS011;8055;51.930;8.840;2022-12-08T07:50:34;40.58;;;23.33;;
15913;SDS011;8055;51.930;8.840;2022-12-08T07:53:00;44.33;;;24.85;;
15913;SDS011;8055;51.930;8.840;2022-12-08T07:55:25;73.35;;;42.60;;
15913;SDS011;8055;51.930;8.840;2022-12-08T07:57:50;47.53;;;26.50;;
15913;SDS011;8055;51.930;8.840;2022-12-08T08:00:16;113.80;;;50.55;;
15913;SDS011;8055;51.930;8.840;2022-12-08T08:02:43;172.45;;;67.28;;
15913;SDS011;8055;51.930;8.840;2022-12-08T08:05:09;76.35;;;36.92;;
15913;SDS011;8055;51.930;8.840;2022-12-08T08:07:36;48.42;;;27.27;;
15913;SDS011;8055;51.930;8.840;2022-12-08T08:10:02;50.35;;;29.10;;
15913;SDS011;8055;51.930;8.840;2022-12-08T08:12:28;45.35;;;27.33;;
15913;SDS011;8055;51.930;8.840;2022-12-08T08:14:53;43.45;;;24.05;;
15913;SDS011;8055;51.930;8.840;2022-12-08T08:17:18;39.90;;;22.48;;
15913;SDS011;8055;51.930;8.840;2022-12-08T08:19:44;38.03;;;22.05;;
15913;SDS011;8055;51.930;8.840;2022-12-08T08:22:10;40.92;;;22.90;;
15913;SDS011;8055;51.930;8.840;2022-12-08T08:24:35;41.63;;;22.67;;
15913;SDS011;8055;51.930;8.840;2022-12-08T08:27:01;39.25;;;22.08;;
15913;SDS011;8055;51.930;8.840;2022-12-08T08:29:26;39.63;;;22.00;;
15913;SDS011;8055;51.930;8.840;2022-12-08T08:31:52;38.30;;;21.58;;
15913;SDS011;8055;51.930;8.840;2022-12-08T08:34:17;41.67;;;23.67;;
15913;SDS011;8055;51.930;8.840;2022-12-08T08:36:42;34.53;;;20.30;;
15913;SDS011;8055;51.930;8.840;2022-12-08T08:39:08;33.65;;;19.90;;
15913;SDS011;8055;51.930;8.840;2022-12-08T08:41:33;36.63;;;20.55;;
15913;SDS011;8055;51.930;8.840;2022-12-08T08:43:59;37.55;;;21.25;;
15913;SDS011;8055;51.930;8.840;2022-12-08T08:46:25;34.35;;;18.83;;
15913;SDS011;8055;51.930;8.840;2022-12-08T08:48:50;36.78;;;20.85;;
15913;SDS011;8055;51.930;8.840;2022-12-08T08:51:16;35.08;;;19.23;;
15913;SDS011;8055;51.930;8.840;2022-12-08T08:53:41;34.20;;;20.02;;
15913;SDS011;8055;51.930;8.840;2022-12-08T08:56:08;35.80;;;20.58;;
15913;SDS011;8055;51.930;8.840;2022-12-08T08:58:34;36.05;;;20.45;;
15913;SDS011;8055;51.930;8.840;2022-12-08T09:01:00;38.30;;;21.73;;
15913;SDS011;8055;51.930;8.840;2022-12-08T09:03:25;35.42;;;20.80;;
15913;SDS011;8055;51.930;8.840;2022-12-08T09:05:51;42.42;;;26.67;;
15913;SDS011;8055;51.930;8.840;2022-12-08T09:08:16;35.33;;;20.83;;
15913;SDS011;8055;51.930;8.840;2022-12-08T09:10:42;38.10;;;21.48;;
15913;SDS011;8055;51.930;8.840;2022-12-08T09:13:07;34.80;;;19.90;;
15913;SDS011;8055;51.930;8.840;2022-12-08T09:15:33;30.90;;;19.27;;
15913;SDS011;8055;51.930;8.840;2022-12-08T09:17:58;31.33;;;18.40;;
15913;SDS011;8055;51.930;8.840;2022-12-08T09:20:23;35.33;;;19.52;;
15913;SDS011;8055;51.930;8.840;2022-12-08T09:22:49;32.40;;;19.98;;
15913;SDS011;8055;51.930;8.840;2022-12-08T09:25:14;31.75;;;18.90;;
15913;SDS011;8055;51.930;8.840;2022-12-08T09:27:40;34.05;;;19.20;;
15913;SDS011;8055;51.930;8.840;2022-12-08T09:30:05;34.67;;;19.15;;
15913;SDS011;8055;51.930;8.840;2022-12-08T09:32:31;45.00;;;29.02;;
15913;SDS011;8055;51.930;8.840;2022-12-08T09:34:56;35.78;;;21.70;;
15913;SDS011;8055;51.930;8.840;2022-12-08T09:37:22;45.00;;;29.75;;
15913;SDS011;8055;51.930;8.840;2022-12-08T09:39:47;37.80;;;21.33;;
15913;SDS011;8055;51.930;8.840;2022-12-08T09:42:12;37.60;;;21.75;;
15913;SDS011;8055;51.930;8.840;2022-12-08T09:47:15;34.85;;;19.88;;
15913;SDS011;8055;51.930;8.840;2022-12-08T09:49:48;32.70;;;19.77;;
15913;SDS011;8055;51.930;8.840;2022-12-08T09:55:13;41.80;;;28.15;;
15913;SDS011;8055;51.930;8.840;2022-12-08T09:57:43;38.00;;;26.60;;
15913;SDS011;8055;51.930;8.840;2022-12-08T10:00:10;36.10;;;22.58;;
15913;SDS011;8055;51.930;8.840;2022-12-08T10:02:55;32.45;;;19.95;;
15913;SDS011;8055;51.930;8.840;2022-12-08T10:05:21;32.33;;;18.98;;
15913;SDS011;8055;51.930;8.840;2022-12-08T10:08:01;32.90;;;19.50;;
15913;SDS011;8055;51.930;8.840;2022-12-08T10:10:46;34.83;;;19.55;;
15913;SDS011;8055;51.930;8.840;2022-12-08T10:14:06;33.42;;;19.75;;
15913;SDS011;8055;51.930;8.840;2022-12-08T10:16:17;32.30;;;18.00;;
15913;SDS011;8055;51.930;8.840;2022-12-08T10:18:46;29.45;;;17.73;;
15913;SDS011;8055;51.930;8.840;2022-12-08T10:21:22;31.17;;;18.05;;
15913;SDS011;8055;51.930;8.840;2022-12-08T10:23:51;25.83;;;15.60;;
15913;SDS011;8055;51.930;8.840;2022-12-08T10:26:22;23.70;;;14.27;;
15913;SDS011;8055;51.930;8.840;2022-12-08T10:28:48;23.10;;;14.10;;
15913;SDS011;8055;51.930;8.840;2022-12-08T10:31:15;28.80;;;17.52;;
15913;SDS011;8055;51.930;8.840;2022-12-08T10:33:40;35.33;;;24.55;;
15913;SDS011;8055;51.930;8.840;2022-12-08T10:36:06;35.30;;;29.40;;
15913;SDS011;8055;51.930;8.840;2022-12-08T10:38:34;24.70;;;16.80;;
15913;SDS011;8055;51.930;8.840;2022-12-08T10:43:41;21.48;;;12.98;;
15913;SDS011;8055;51.930;8.840;2022-12-08T10:46:15;22.67;;;14.07;;
15913;SDS011;8055;51.930;8.840;2022-12-08T10:48:48;23.10;;;14.82;;
15913;SDS011;8055;51.930;8.840;2022-12-08T10:53:57;24.42;;;16.75;;
15913;SDS011;8055;51.930;8.840;2022-12-08T10:56:24;27.60;;;15.13;;
15913;SDS011;8055;51.930;8.840;2022-12-08T10:59:03;22.40;;;14.40;;
15913;SDS011;8055;51.930;8.840;2022-12-08T11:01:39;23.42;;;13.68;;
15913;SDS011;8055;51.930;8.840;2022-12-08T11:04:10;24.35;;;15.73;;
15913;SDS011;8055;51.930;8.840;2022-12-08T11:06:40;22.35;;;14.15;;
15913;SDS011;8055;51.930;8.840;2022-12-08T11:09:20;26.40;;;16.25;;
15913;SDS011;8055;51.930;8.840;2022-12-08T11:12:00;26.23;;;15.40;;
15913;SDS011;8055;51.930;8.840;2022-12-08T11:14:32;25.33;;;15.73;;
15913;SDS011;8055;51.930;8.840;2022-12-08T11:19:39;24.92;;;15.85;;
15913;SDS011;8055;51.930;8.840;2022-12-08T11:27:38;22.77;;;15.10;;
15913;SDS011;8055;51.930;8.840;2022-12-08T11:30:14;22.30;;;14.38;;
15913;SDS011;8055;51.930;8.840;2022-12-08T11:32:43;19.08;;;12.38;;
15913;SDS011;8055;51.930;8.840;2022-12-08T11:35:22;20.67;;;13.98;;
15913;SDS011;8055;51.930;8.840;2022-12-08T11:37:51;22.05;;;13.55;;
15913;SDS011;8055;51.930;8.840;2022-12-08T11:40:23;19.90;;;13.13;;
15913;SDS011;8055;51.930;8.840;2022-12-08T11:42:56;20.25;;;12.68;;
15913;SDS011;8055;51.930;8.840;2022-12-08T11:45:31;19.20;;;12.60;;
15913;SDS011;8055;51.930;8.840;2022-12-08T11:48:18;19.10;;;12.55;;
15913;SDS011;8055;51.930;8.840;2022-12-08T11:50:55;17.58;;;11.55;;
15913;SDS011;8055;51.930;8.840;2022-12-08T11:55:56;16.15;;;10.60;;
15913;SDS011;8055;51.930;8.840;2022-12-08T11:58:25;18.73;;;12.63;;
15913;SDS011;8055;51.930;8.840;2022-12-08T12:00:56;28.00;;;18.10;;
15913;SDS011;8055;51.930;8.840;2022-12-08T12:03:33;18.02;;;12.52;;
15913;SDS011;8055;51.930;8.840;2022-12-08T12:08:55;17.15;;;11.05;;
15913;SDS011;8055;51.930;8.840;2022-12-08T12:11:44;15.85;;;10.82;;
15913;SDS011;8055;51.930;8.840;2022-12-08T12:15:21;18.20;;;11.82;;
15913;SDS011;8055;51.930;8.840;2022-12-08T12:20:31;19.48;;;11.82;;
15913;SDS011;8055;51.930;8.840;2022-12-08T12:25:59;18.80;;;11.45;;
15913;SDS011;8055;51.930;8.840;2022-12-08T12:28:28;15.10;;;10.52;;
15913;SDS011;8055;51.930;8.840;2022-12-08T12:31:05;14.93;;;10.13;;
15913;SDS011;8055;51.930;8.840;2022-12-08T12:33:34;16.08;;;10.48;;
15913;SDS011;8055;51.930;8.840;2022-12-08T12:36:01;15.57;;;10.35;;
15913;SDS011;8055;51.930;8.840;2022-12-08T12:38:30;18.50;;;12.63;;
15913;SDS011;8055;51.930;8.840;2022-12-08T12:41:25;19.85;;;10.65;;
15913;SDS011;8055;51.930;8.840;2022-12-08T12:44:07;18.08;;;10.85;;
15913;SDS011;8055;51.930;8.840;2022-12-08T12:52:00;17.52;;;11.50;;
15913;SDS011;8055;51.930;8.840;2022-12-08T12:54:26;16.40;;;11.07;;
15913;SDS011;8055;51.930;8.840;2022-12-08T12:56:54;16.40;;;10.32;;
15913;SDS011;8055;51.930;8.840;2022-12-08T12:59:45;16.75;;;9.48;;
15913;SDS011;8055;51.930;8.840;2022-12-08T13:02:30;13.90;;;9.90;;
15913;SDS011;8055;51.930;8.840;2022-12-08T13:12:44;17.13;;;10.57;;
15913;SDS011;8055;51.930;8.840;2022-12-08T13:15:25;61.72;;;34.38;;
15913;SDS011;8055;51.930;8.840;2022-12-08T13:20:46;31.85;;;18.85;;
15913;SDS011;8055;51.930;8.840;2022-12-08T13:23:26;16.48;;;10.38;;
15913;SDS011;8055;51.930;8.840;2022-12-08T13:26:07;18.40;;;13.13;;
15913;SDS011;8055;51.930;8.840;2022-12-08T13:34:02;16.65;;;9.13;;
15913;SDS011;8055;51.930;8.840;2022-12-08T13:36:35;16.27;;;10.18;;
15913;SDS011;8055;51.930;8.840;2022-12-08T13:39:04;15.18;;;10.13;;
15913;SDS011;8055;51.930;8.840;2022-12-08T13:47:05;14.15;;;8.98;;
15913;SDS011;8055;51.930;8.840;2022-12-08T13:49:36;15.13;;;8.88;;
15913;SDS011;8055;51.930;8.840;2022-12-08T13:52:14;14.13;;;7.65;;
15913;SDS011;8055;51.930;8.840;2022-12-08T13:54:43;13.32;;;7.38;;
15913;SDS011;8055;51.930;8.840;2022-12-08T13:57:14;11.60;;;7.88;;
15913;SDS011;8055;51.930;8.840;2022-12-08T13:59:48;11.77;;;7.45;;
15913;SDS011;8055;51.930;8.840;2022-12-08T14:02:15;12.13;;;7.15;;
15913;SDS011;8055;51.930;8.840;2022-12-08T14:04:45;12.68;;;7.53;;
15913;SDS011;8055;51.930;8.840;2022-12-08T14:07:13;12.02;;;7.57;;
15913;SDS011;8055;51.930;8.840;2022-12-08T14:09:39;11.90;;;7.20;;
15913;SDS011;8055;51.930;8.840;2022-12-08T14:12:16;15.57;;;8.88;;
15913;SDS011;8055;51.930;8.840;2022-12-08T14:14:45;10.45;;;7.38;;
15913;SDS011;8055;51.930;8.840;2022-12-08T14:17:22;12.63;;;7.75;;
15913;SDS011;8055;51.930;8.840;2022-12-08T14:22:31;11.20;;;7.05;;
15913;SDS011;8055;51.930;8.840;2022-12-08T14:25:02;11.30;;;7.47;;
15913;SDS011;8055;51.930;8.840;2022-12-08T14:27:31;11.55;;;7.63;;
15913;SDS011;8055;51.930;8.840;2022-12-08T14:30:05;13.82;;;8.50;;
15913;SDS011;8055;51.930;8.840;2022-12-08T14:32:42;19.85;;;11.15;;
15913;SDS011;8055;51.930;8.840;2022-12-08T14:35:18;26.58;;;15.85;;
15913;SDS011;8055;51.930;8.840;2022-12-08T14:37:48;13.63;;;9.93;;
15913;SDS011;8055;51.930;8.840;2022-12-08T14:40:34;16.65;;;8.70;;
15913;SDS011;8055;51.930;8.840;2022-12-08T14:45:33;19.25;;;12.55;;
15913;SDS011;8055;51.930;8.840;2022-12-08T14:53:20;19.20;;;11.85;;
15913;SDS011;8055;51.930;8.840;2022-12-08T14:55:46;15.65;;;10.15;;
15913;SDS011;8055;51.930;8.840;2022-12-08T14:58:19;19.10;;;10.98;;
15913;SDS011;8055;51.930;8.840;2022-12-08T15:00:51;17.73;;;10.73;;
15913;SDS011;8055;51.930;8.840;2022-12-08T15:03:21;16.90;;;10.20;;
15913;SDS011;8055;51.930;8.840;2022-12-08T15:05:51;20.20;;;11.23;;
15913;SDS011;8055;51.930;8.840;2022-12-08T15:08:20;17.90;;;10.70;;
15913;SDS011;8055;51.930;8.840;2022-12-08T15:10:45;21.08;;;10.57;;
15913;SDS011;8055;51.930;8.840;2022-12-08T15:15:44;18.20;;;10.48;;
15913;SDS011;8055;51.930;8.840;2022-12-08T15:18:20;16.08;;;9.75;;
15913;SDS011;8055;51.930;8.840;2022-12-08T15:20:52;16.23;;;9.48;;
15913;SDS011;8055;51.930;8.840;2022-12-08T15:23:28;18.17;;;10.77;;
15913;SDS011;8055;51.930;8.840;2022-12-08T15:25:56;17.92;;;9.48;;
15913;SDS011;8055;51.930;8.840;2022-12-08T15:28:24;14.15;;;8.45;;
15913;SDS011;8055;51.930;8.840;2022-12-08T15:30:51;14.55;;;8.93;;
15913;SDS011;8055;51.930;8.840;2022-12-08T15:33:18;15.68;;;9.13;;
15913;SDS011;8055;51.930;8.840;2022-12-08T15:35:43;15.05;;;9.10;;
15913;SDS011;8055;51.930;8.840;2022-12-08T15:38:18;16.30;;;9.25;;
15913;SDS011;8055;51.930;8.840;2022-12-08T15:40:47;15.68;;;9.15;;
15913;SDS011;8055;51.930;8.840;2022-12-08T15:43:13;14.10;;;9.23;;
15913;SDS011;8055;51.930;8.840;2022-12-08T15:45:38;14.32;;;8.45;;
15913;SDS011;8055;51.930;8.840;2022-12-08T15:48:04;12.32;;;8.13;;
15913;SDS011;8055;51.930;8.840;2022-12-08T15:50:30;14.18;;;8.30;;
15913;SDS011;8055;51.930;8.840;2022-12-08T15:52:55;19.73;;;11.50;;
15913;SDS011;8055;51.930;8.840;2022-12-08T15:55:21;23.35;;;14.88;;
15913;SDS011;8055;51.930;8.840;2022-12-08T15:57:50;34.70;;;18.20;;
15913;SDS011;8055;51.930;8.840;2022-12-08T16:02:43;26.10;;;13.73;;
15913;SDS011;8055;51.930;8.840;2022-12-08T16:05:09;17.73;;;10.52;;
15913;SDS011;8055;51.930;8.840;2022-12-08T16:07:34;15.88;;;9.80;;
15913;SDS011;8055;51.930;8.840;2022-12-08T16:10:02;14.40;;;9.38;;
15913;SDS011;8055;51.930;8.840;2022-12-08T16:12:28;18.13;;;10.95;;
15913;SDS011;8055;51.930;8.840;2022-12-08T16:15:11;17.63;;;10.88;;
15913;SDS011;8055;51.930;8.840;2022-12-08T16:17:37;17.13;;;10.85;;
15913;SDS011;8055;51.930;8.840;2022-12-08T16:20:11;20.20;;;11.75;;
15913;SDS011;8055;51.930;8.840;2022-12-08T16:22:38;23.08;;;12.75;;
15913;SDS011;8055;51.930;8.840;2022-12-08T16:25:05;22.52;;;13.40;;
15913;SDS011;8055;51.930;8.840;2022-12-08T16:27:34;22.20;;;13.23;;
15913;SDS011;8055;51.930;8.840;2022-12-08T16:30:01;24.15;;;13.77;;
15913;SDS011;8055;51.930;8.840;2022-12-08T16:32:28;25.08;;;14.77;;
15913;SDS011;8055;51.930;8.840;2022-12-08T16:34:53;22.52;;;13.32;;
15913;SDS011;8055;51.930;8.840;2022-12-08T16:37:20;23.02;;;13.40;;
15913;SDS011;8055;51.930;8.840;2022-12-08T16:39:48;26.00;;;13.85;;